Terminal Aerodrome Forecast
Issued by NWS Grand Forks, ND

Home | Current Version | Previous Version | Graphics & Text | Print | Product List | Glossary On
Versions: 1 2 3 4 5 6 7 8 9 10 11 12 13 14 15 16 17 18
000
FTUS43 KFGF 301120
TAFFAR
TAF
KFAR 301120Z 3012/3112 17012KT P6SM SCT250
     FM301700 18016G23KT P6SM SCT250
     FM310300 18013KT P6SM BKN200=

USA.gov is the U.S. government's official web portal to all federal, state and local government web resources and services.